createdAt,value
2019-05-17T00:02:13.003Z,49.53
2019-05-17T00:04:47.247Z,55.45
2019-05-17T00:07:20.501Z,52.60
2019-05-17T00:09:53.440Z,52.48
2019-05-17T00:12:27.249Z,53.73
2019-05-17T00:15:01.452Z,54.08
2019-05-17T00:17:37.836Z,49.33
2019-05-17T00:20:09.996Z,51.50
2019-05-17T00:22:44.276Z,55.45
2019-05-17T00:25:17.969Z,53.58
2019-05-17T00:27:51.171Z,57.55
2019-05-17T00:30:26.521Z,52.88
2019-05-17T00:33:00.626Z,55.52
2019-05-17T00:35:37.349Z,56.28
2019-05-17T00:38:09.675Z,58.38
2019-05-17T00:40:43.918Z,59.75
2019-05-17T00:43:17.589Z,58.28
2019-05-17T00:45:51.505Z,52.93
2019-05-17T00:48:26.453Z,55.80
2019-05-17T00:51:02.303Z,56.68
2019-05-17T00:53:36.339Z,56.88
2019-05-17T00:56:10.170Z,54.83
2019-05-17T00:58:44.218Z,54.63
2019-05-17T01:01:17.947Z,52.35
2019-05-17T01:03:51.466Z,55.03
2019-05-17T01:06:27.370Z,54.15
2019-05-17T01:09:03.709Z,59.33
2019-05-17T01:11:36.562Z,56.18
2019-05-17T01:14:10.046Z,56.33
2019-05-17T01:16:43.791Z,60.28
2019-05-17T01:19:17.164Z,55.80
2019-05-17T01:21:50.791Z,55.28
2019-05-17T01:24:24.066Z,56.92
2019-05-17T01:26:57.902Z,56.18
2019-05-17T01:29:31.481Z,55.63
2019-05-17T01:32:06.801Z,58.02
2019-05-17T01:34:43.412Z,58.08
2019-05-17T01:37:17.240Z,59.03
2019-05-17T01:39:50.553Z,54.20
2019-05-17T01:42:23.846Z,58.02
2019-05-17T01:44:57.102Z,56.18
2019-05-17T01:47:30.956Z,56.80
2019-05-17T01:50:06.633Z,51.92
2019-05-17T01:52:40.125Z,54.80
2019-05-17T01:55:13.937Z,58.38
2019-05-17T01:57:47.810Z,54.95
2019-05-17T02:00:23.125Z,47.93
2019-05-17T02:02:57.834Z,51.05
2019-05-17T02:05:31.210Z,52.85
2019-05-17T02:08:06.619Z,51.77
2019-05-17T02:10:39.461Z,55.08
2019-05-17T02:13:13.096Z,53.38
2019-05-17T02:15:47.100Z,52.17
2019-05-17T02:18:20.952Z,50.67
2019-05-17T02:20:56.881Z,49.75
2019-05-17T02:23:30.454Z,54.65
2019-05-17T02:26:06.449Z,51.65
2019-05-17T02:28:41.444Z,52.62
2019-05-17T02:31:14.513Z,50.70
2019-05-17T02:33:47.921Z,55.60
2019-05-17T02:36:22.831Z,56.58
2019-05-17T02:38:56.383Z,50.67
2019-05-17T02:41:33.089Z,53.08
2019-05-17T02:44:05.113Z,50.63
2019-05-17T02:46:38.943Z,52.73
2019-05-17T02:49:13.728Z,57.40
2019-05-17T02:51:47.890Z,49.25
2019-05-17T02:54:23.571Z,52.55
2019-05-17T02:56:56.982Z,55.67
2019-05-17T02:59:33.138Z,49.13
2019-05-17T03:02:06.520Z,51.02
2019-05-17T03:04:43.050Z,48.00
2019-05-17T03:07:15.634Z,50.48
2019-05-17T03:09:48.511Z,50.40
2019-05-17T03:12:23.622Z,52.73
2019-05-17T03:14:58.182Z,49.75
2019-05-17T03:17:33.801Z,51.65
2019-05-17T03:20:06.033Z,48.87
2019-05-17T03:22:39.258Z,47.30
2019-05-17T03:25:13.656Z,47.35
2019-05-17T03:27:46.233Z,46.42
2019-05-17T03:30:20.770Z,47.98
2019-05-17T03:32:56.406Z,45.80
2019-05-17T03:35:36.669Z,45.80
2019-05-17T03:38:05.770Z,48.42
2019-05-17T03:41:03.274Z,49.53
2019-05-17T03:43:14.292Z,48.00
2019-05-17T03:45:47.178Z,51.45
2019-05-17T03:48:22.144Z,48.13
2019-05-17T03:50:55.790Z,47.78
2019-05-17T03:53:29.069Z,48.75
2019-05-17T03:56:03.382Z,48.48
2019-05-17T03:58:36.815Z,51.35
2019-05-17T04:01:13.652Z,48.60
2019-05-17T04:03:44.646Z,47.43
2019-05-17T04:06:18.071Z,48.83
2019-05-17T04:08:52.741Z,50.90
2019-05-17T04:11:31.852Z,51.65
2019-05-17T04:14:02.905Z,47.38
2019-05-17T04:16:35.683Z,49.10
2019-05-17T04:19:08.933Z,51.30
2019-05-17T04:21:43.099Z,51.50
2019-05-17T04:24:16.924Z,48.68
2019-05-17T04:26:52.313Z,50.43
2019-05-17T04:29:26.116Z,47.83
2019-05-17T04:31:59.236Z,47.25
2019-05-17T04:34:33.869Z,50.50
2019-05-17T04:37:06.843Z,49.83
2019-05-17T04:39:42.918Z,44.88
2019-05-17T04:42:13.879Z,46.73
2019-05-17T04:44:46.474Z,46.00
2019-05-17T04:47:22.684Z,46.35
2019-05-17T04:49:54.483Z,43.40
2019-05-17T04:52:26.426Z,44.93
2019-05-17T04:54:58.899Z,44.45
2019-05-17T04:57:32.528Z,43.75
2019-05-17T05:00:06.476Z,44.45
2019-05-17T05:02:39.314Z,43.85
2019-05-17T05:05:14.528Z,42.45
2019-05-17T05:07:47.635Z,47.38
2019-05-17T05:10:22.520Z,47.80
2019-05-17T05:12:55.287Z,48.60
2019-05-17T05:15:46.444Z,49.70
2019-05-17T05:18:22.119Z,49.25
2019-05-17T05:20:54.096Z,54.08
2019-05-17T05:23:26.462Z,52.23
2019-05-17T05:25:59.421Z,55.20
2019-05-17T05:28:32.683Z,53.42
2019-05-17T05:31:05.122Z,56.18
2019-05-17T05:33:38.591Z,55.45
2019-05-17T05:36:11.468Z,53.83
2019-05-17T05:38:44.309Z,53.13
2019-05-17T05:41:17.276Z,56.68
2019-05-17T05:43:49.706Z,57.00
2019-05-17T05:46:22.464Z,56.90
2019-05-17T05:48:55.125Z,57.27
2019-05-17T05:51:28.044Z,57.98
2019-05-17T05:54:01.671Z,61.68
2019-05-17T05:56:35.921Z,59.50
2019-05-17T05:59:12.117Z,61.45
2019-05-17T06:01:45.657Z,71.15
2019-05-17T06:04:18.957Z,76.55
2019-05-17T06:06:52.185Z,64.95
2019-05-17T06:09:26.241Z,61.98
2019-05-17T06:11:59.537Z,66.80
2019-05-17T06:14:32.802Z,60.48
2019-05-17T06:17:05.234Z,63.63
2019-05-17T06:19:37.746Z,65.45
2019-05-17T06:22:11.983Z,66.28
2019-05-17T06:24:44.005Z,63.90
2019-05-17T06:27:16.497Z,65.65
2019-05-17T06:29:51.338Z,58.58
2019-05-17T06:32:23.970Z,60.83
2019-05-17T06:34:57.879Z,58.83
2019-05-17T06:37:31.818Z,59.42
2019-05-17T06:40:05.799Z,62.10
2019-05-17T06:42:42.512Z,62.70
2019-05-17T06:45:15.153Z,60.05
2019-05-17T06:47:48.622Z,61.40
2019-05-17T06:50:23.635Z,59.08
2019-05-17T06:52:57.474Z,58.15
2019-05-17T06:55:31.713Z,56.02
2019-05-17T06:58:04.982Z,57.38
2019-05-17T07:00:40.448Z,62.35
2019-05-17T07:03:13.895Z,57.08
2019-05-17T07:05:50.191Z,60.48
2019-05-17T07:08:23.923Z,68.10
2019-05-17T07:10:59.740Z,61.50
2019-05-17T07:13:33.103Z,71.42
2019-05-17T07:16:05.922Z,61.65
2019-05-17T07:18:39.842Z,61.05
2019-05-17T07:21:13.059Z,58.55
2019-05-17T07:23:46.800Z,59.25
2019-05-17T07:26:20.166Z,58.35
2019-05-17T07:28:52.966Z,61.80
2019-05-17T07:31:25.560Z,63.52
2019-05-17T07:33:59.707Z,63.15
2019-05-17T07:36:31.270Z,60.92
2019-05-17T07:39:05.191Z,59.90
2019-05-17T07:41:39.917Z,63.28
2019-05-17T07:44:12.950Z,58.28
2019-05-17T07:46:44.870Z,57.90
2019-05-17T07:49:20.022Z,61.08
2019-05-17T07:51:52.437Z,63.48
2019-05-17T07:54:24.939Z,58.60
2019-05-17T07:57:00.095Z,61.50
2019-05-17T07:59:34.519Z,63.28
2019-05-17T08:02:07.449Z,61.18
2019-05-17T08:04:41.221Z,62.05
2019-05-17T08:07:14.995Z,62.88
2019-05-17T08:09:50.681Z,66.85
2019-05-17T08:12:23.409Z,69.12
2019-05-17T08:14:56.326Z,70.65
2019-05-17T08:17:30.480Z,74.62
2019-05-17T08:20:03.213Z,67.15
2019-05-17T08:22:39.560Z,71.15
2019-05-17T08:25:11.741Z,75.20
2019-05-17T08:27:45.031Z,74.67
2019-05-17T08:30:20.622Z,67.15
2019-05-17T08:32:54.503Z,71.30
2019-05-17T08:35:30.318Z,68.55
2019-05-17T08:38:03.190Z,66.17
2019-05-17T08:40:36.176Z,68.62
2019-05-17T08:43:09.969Z,69.17
2019-05-17T08:45:44.240Z,73.25
2019-05-17T08:48:17.235Z,74.22
2019-05-17T08:50:49.784Z,65.00
2019-05-17T08:53:22.274Z,65.42
2019-05-17T08:55:55.779Z,62.80
2019-05-17T08:58:29.721Z,71.95
2019-05-17T09:01:02.393Z,65.37
2019-05-17T09:03:34.982Z,63.30
2019-05-17T09:06:07.306Z,65.50
2019-05-17T09:08:40.524Z,68.45
2019-05-17T09:11:14.115Z,58.48
2019-05-17T09:13:57.310Z,66.57
2019-05-17T09:16:21.116Z,62.10
2019-05-17T09:18:54.403Z,60.45
2019-05-17T09:21:26.948Z,55.17
2019-05-17T09:24:00.315Z,57.62
2019-05-17T09:26:33.257Z,56.30
2019-05-17T09:29:07.078Z,52.45
2019-05-17T09:31:40.442Z,44.40
2019-05-17T09:34:12.637Z,42.73
2019-05-17T09:36:44.565Z,42.55
2019-05-17T09:39:17.182Z,39.10
2019-05-17T09:41:50.334Z,39.42
2019-05-17T09:44:24.206Z,37.23
2019-05-17T09:46:59.355Z,38.40
2019-05-17T09:49:32.521Z,39.27
2019-05-17T09:52:06.722Z,38.30
2019-05-17T09:54:45.096Z,36.55
2019-05-17T09:57:15.885Z,36.55
2019-05-17T09:59:49.758Z,37.88
2019-05-17T10:02:23.119Z,36.17
2019-05-17T10:04:59.659Z,35.95
2019-05-17T10:07:32.728Z,37.73
2019-05-17T10:10:05.915Z,34.15
2019-05-17T10:12:40.333Z,41.40
2019-05-17T10:15:15.075Z,36.20
2019-05-17T10:17:49.187Z,37.30
2019-05-17T10:20:22.565Z,34.03
2019-05-17T10:22:55.803Z,31.45
2019-05-17T10:25:29.502Z,28.80
2019-05-17T10:28:03.825Z,31.57
2019-05-17T10:30:39.541Z,30.95
2019-05-17T10:33:11.548Z,30.95
2019-05-17T10:35:44.606Z,30.52
2019-05-17T10:38:19.509Z,32.88
2019-05-17T10:40:53.481Z,34.35
2019-05-17T10:43:29.717Z,35.78
2019-05-17T10:46:03.066Z,36.15
2019-05-17T10:48:36.393Z,32.05
2019-05-17T10:51:13.282Z,33.60
2019-05-17T10:53:45.677Z,35.68
2019-05-17T10:56:23.215Z,39.88
2019-05-17T10:58:55.382Z,43.40
2019-05-17T11:01:30.585Z,43.42
2019-05-17T11:04:04.183Z,43.45
2019-05-17T11:06:39.374Z,44.55
2019-05-17T11:09:11.529Z,44.93
2019-05-17T11:11:44.892Z,43.15
2019-05-17T11:14:17.328Z,45.60
2019-05-17T11:16:51.242Z,43.78
2019-05-17T11:19:24.587Z,42.65
2019-05-17T11:21:57.824Z,41.75
2019-05-17T11:24:31.765Z,38.15
2019-05-17T11:27:05.605Z,38.50
2019-05-17T11:29:38.092Z,34.88
2019-05-17T11:32:11.822Z,34.05
2019-05-17T11:34:45.118Z,31.40
2019-05-17T11:37:18.931Z,28.30
2019-05-17T11:39:52.692Z,27.35
2019-05-17T11:42:26.023Z,22.32
2019-05-17T11:45:00.277Z,21.57
2019-05-17T11:47:34.015Z,22.20
2019-05-17T11:50:07.721Z,21.20
2019-05-17T11:52:41.490Z,23.75
2019-05-17T11:55:15.299Z,19.15
2019-05-17T11:57:49.150Z,18.07
2019-05-17T12:00:24.138Z,15.13
2019-05-17T12:02:57.793Z,16.55
2019-05-17T12:05:29.822Z,15.18
2019-05-17T12:08:03.286Z,14.10
2019-05-17T12:10:37.215Z,10.90
2019-05-17T12:13:10.915Z,11.35
2019-05-17T12:15:45.619Z,10.48
2019-05-17T12:18:18.933Z,10.93
2019-05-17T12:20:51.762Z,10.50
2019-05-17T12:23:24.709Z,13.25
2019-05-17T12:25:58.822Z,11.73
2019-05-17T12:28:32.420Z,11.80
2019-05-17T12:31:06.246Z,10.98
2019-05-17T12:33:40.005Z,12.03
2019-05-17T12:36:14.145Z,12.35
2019-05-17T12:38:46.608Z,12.65
2019-05-17T12:41:19.001Z,12.90
2019-05-17T12:43:51.380Z,13.53
2019-05-17T12:46:23.777Z,9.38
2019-05-17T12:48:56.363Z,11.30
2019-05-17T12:51:32.764Z,16.25
2019-05-17T12:54:04.544Z,9.45
2019-05-17T12:56:37.537Z,10.45
2019-05-17T12:59:10.515Z,12.73
2019-05-17T13:01:43.415Z,9.83
2019-05-17T13:04:16.677Z,9.30
2019-05-17T13:06:49.198Z,10.50
2019-05-17T13:09:22.671Z,12.10
2019-05-17T13:11:55.069Z,10.63
2019-05-17T13:14:27.149Z,11.33
2019-05-17T13:16:59.634Z,10.20
2019-05-17T13:19:31.575Z,11.43
2019-05-17T13:22:04.509Z,11.63
2019-05-17T13:24:37.413Z,14.25
2019-05-17T13:27:09.842Z,10.10
2019-05-17T13:29:42.855Z,11.50
2019-05-17T13:32:16.227Z,10.43
2019-05-17T13:34:49.938Z,10.95
2019-05-17T13:37:22.883Z,10.60
2019-05-17T13:39:55.321Z,9.88
2019-05-17T13:42:27.649Z,10.45
2019-05-17T13:45:00.695Z,11.55
2019-05-17T13:47:33.606Z,13.80
2019-05-17T13:50:06.889Z,11.43
2019-05-17T13:52:40.305Z,10.25
2019-05-17T13:55:14.261Z,9.40
2019-05-17T13:58:02.858Z,9.75
2019-05-17T14:00:46.335Z,12.65
2019-05-17T14:03:20.392Z,10.30
2019-05-17T14:05:53.314Z,13.43
2019-05-17T14:08:26.727Z,15.10
2019-05-17T14:10:59.631Z,10.95
2019-05-17T14:13:31.618Z,11.33
2019-05-17T14:16:04.036Z,12.90
2019-05-17T14:18:37.090Z,10.50
2019-05-17T14:21:09.494Z,10.68
2019-05-17T14:23:41.907Z,8.93
2019-05-17T14:26:14.333Z,11.53
2019-05-17T14:28:46.767Z,10.15
2019-05-17T14:31:19.670Z,10.20
2019-05-17T14:33:52.206Z,9.53
2019-05-17T14:36:25.473Z,11.10
2019-05-17T14:38:59.204Z,15.40
2019-05-17T14:41:31.697Z,11.90
2019-05-17T14:44:05.049Z,11.88
2019-05-17T14:46:37.449Z,11.43
2019-05-17T14:49:10.255Z,12.40
2019-05-17T14:51:43.185Z,10.80
2019-05-17T14:54:16.182Z,10.32
2019-05-17T14:56:48.155Z,14.20
2019-05-17T14:59:21.062Z,14.75
2019-05-17T15:01:53.537Z,11.97
2019-05-17T15:04:26.648Z,11.65
2019-05-17T15:06:59.956Z,11.38
2019-05-17T15:09:32.926Z,10.95
2019-05-17T15:12:05.464Z,11.90
2019-05-17T15:14:37.384Z,10.80
2019-05-17T15:17:10.217Z,10.00
2019-05-17T15:19:42.713Z,10.50
2019-05-17T15:22:14.670Z,10.58
2019-05-17T15:24:47.285Z,11.57
2019-05-17T15:27:20.209Z,20.37
2019-05-17T15:29:52.641Z,12.07
2019-05-17T15:32:24.634Z,12.82
2019-05-17T15:34:57.478Z,10.55
2019-05-17T15:37:30.801Z,10.25
2019-05-17T15:40:03.485Z,9.60
2019-05-17T15:42:44.107Z,10.23
2019-05-17T15:45:12.033Z,11.50
2019-05-17T15:47:45.350Z,10.03
2019-05-17T15:50:18.412Z,10.43
2019-05-17T15:52:52.187Z,11.73
2019-05-17T15:55:25.465Z,10.50
2019-05-17T15:57:58.287Z,10.10
2019-05-17T16:00:31.221Z,14.58
2019-05-17T16:03:04.961Z,11.65
2019-05-17T16:05:39.135Z,11.10
2019-05-17T16:08:12.376Z,10.98
2019-05-17T16:10:46.660Z,10.85
2019-05-17T16:13:20.958Z,12.95
2019-05-17T16:15:54.310Z,10.43
2019-05-17T16:18:28.465Z,10.72
2019-05-17T16:21:02.097Z,11.68
2019-05-17T16:23:36.322Z,11.40
2019-05-17T16:26:10.531Z,14.73
2019-05-17T16:28:43.830Z,10.32
2019-05-17T16:31:18.038Z,10.95
2019-05-17T16:33:52.378Z,12.53
2019-05-17T16:36:25.856Z,14.00
2019-05-17T16:38:59.170Z,14.40
2019-05-17T16:41:32.931Z,12.90
2019-05-17T16:44:08.598Z,14.63
2019-05-17T16:46:41.556Z,15.35
2019-05-17T16:49:14.840Z,14.87
2019-05-17T16:51:48.199Z,15.28
2019-05-17T16:54:21.954Z,17.30
2019-05-17T16:56:54.416Z,17.20
2019-05-17T16:59:28.838Z,16.15
2019-05-17T17:02:02.990Z,16.67
2019-05-17T17:04:35.948Z,18.67
2019-05-17T17:07:09.670Z,17.45
2019-05-17T17:09:43.494Z,16.27
2019-05-17T17:12:16.308Z,17.45
2019-05-17T17:14:50.191Z,19.10
2019-05-17T17:17:23.430Z,17.40
2019-05-17T17:19:57.213Z,17.45
2019-05-17T17:22:31.397Z,19.40
2019-05-17T17:25:04.720Z,19.15
2019-05-17T17:27:38.446Z,19.50
2019-05-17T17:30:11.857Z,20.40
2019-05-17T17:32:45.635Z,23.02
2019-05-17T17:35:19.100Z,22.15
2019-05-17T17:37:52.397Z,18.98
2019-05-17T17:40:27.561Z,23.20
2019-05-17T17:43:01.851Z,19.80
2019-05-17T17:45:35.604Z,21.07
2019-05-17T17:48:10.018Z,23.50
2019-05-17T17:50:43.581Z,20.40
2019-05-17T17:53:18.431Z,21.20
2019-05-17T17:55:52.830Z,20.35
2019-05-17T17:58:26.174Z,23.40
2019-05-17T18:01:00.008Z,22.67
2019-05-17T18:03:33.439Z,26.23
2019-05-17T18:06:06.388Z,23.77
2019-05-17T18:08:39.774Z,23.42
2019-05-17T18:11:13.597Z,22.82
2019-05-17T18:13:48.052Z,22.98
2019-05-17T18:16:22.008Z,26.02
2019-05-17T18:18:56.858Z,25.77
2019-05-17T18:21:31.025Z,27.15
2019-05-17T18:24:08.023Z,27.98
2019-05-17T18:26:41.406Z,40.88
2019-05-17T18:29:14.773Z,40.55
2019-05-17T18:31:48.549Z,39.15
2019-05-17T18:34:22.360Z,34.45
2019-05-17T18:36:56.254Z,32.10
2019-05-17T18:39:29.586Z,29.37
2019-05-17T18:42:03.931Z,26.60
2019-05-17T18:44:37.636Z,25.25
2019-05-17T18:47:11.722Z,23.18
2019-05-17T18:49:45.516Z,22.75
2019-05-17T18:52:19.205Z,21.42
2019-05-17T18:54:52.673Z,22.10
2019-05-17T18:57:25.283Z,20.08
2019-05-17T18:59:58.607Z,23.70
2019-05-17T19:02:32.036Z,22.25
2019-05-17T19:05:05.029Z,20.90
2019-05-17T19:07:38.549Z,21.57
2019-05-17T19:10:11.827Z,26.25
2019-05-17T19:12:59.409Z,24.02
2019-05-17T19:15:32.661Z,24.52
2019-05-17T19:18:10.933Z,23.87
2019-05-17T19:20:45.866Z,25.52
2019-05-17T19:23:18.396Z,27.52
2019-05-17T19:25:50.446Z,25.20
2019-05-17T19:28:22.855Z,27.85
2019-05-17T19:30:57.113Z,24.70
2019-05-17T19:33:29.880Z,28.87
2019-05-17T19:36:03.345Z,27.25
2019-05-17T19:38:35.831Z,26.20
2019-05-17T19:41:08.702Z,27.02
2019-05-17T19:43:41.800Z,26.10
2019-05-17T19:46:13.924Z,26.33
2019-05-17T19:48:46.793Z,30.15
2019-05-17T19:51:19.649Z,33.00
2019-05-17T19:53:52.869Z,27.37
2019-05-17T19:56:25.969Z,29.30
2019-05-17T19:59:00.143Z,28.42
2019-05-17T20:01:33.902Z,28.83
2019-05-17T20:04:07.164Z,31.87
2019-05-17T20:06:42.271Z,35.78
2019-05-17T20:09:15.078Z,27.50
2019-05-17T20:11:50.497Z,30.40
2019-05-17T20:14:22.694Z,29.07
2019-05-17T20:16:55.286Z,32.48
2019-05-17T20:19:27.360Z,34.75
2019-05-17T20:22:00.827Z,30.57
2019-05-17T20:24:34.292Z,28.75
2019-05-17T20:27:08.141Z,27.58
2019-05-17T20:29:41.560Z,26.87
2019-05-17T20:32:15.224Z,33.02
2019-05-17T20:34:49.323Z,27.55
2019-05-17T20:37:23.147Z,31.65
2019-05-17T20:39:57.366Z,26.52
2019-05-17T20:42:31.167Z,26.17
2019-05-17T20:45:04.167Z,28.65
2019-05-17T20:47:37.488Z,31.73
2019-05-17T20:50:11.022Z,35.28
2019-05-17T20:52:44.349Z,31.62
2019-05-17T20:55:18.035Z,33.02
2019-05-17T20:57:51.881Z,32.70
2019-05-17T21:00:25.444Z,32.50
2019-05-17T21:02:59.147Z,32.85
2019-05-17T21:05:32.931Z,37.73
2019-05-17T21:08:06.806Z,34.85
2019-05-17T21:10:40.541Z,32.95
2019-05-17T21:13:14.265Z,32.42
2019-05-17T21:15:48.331Z,32.93
2019-05-17T21:18:21.424Z,29.50
2019-05-17T21:20:55.128Z,31.55
2019-05-17T21:23:28.441Z,28.67
2019-05-17T21:26:01.788Z,28.23
2019-05-17T21:28:35.466Z,29.12
2019-05-17T21:31:09.320Z,36.60
2019-05-17T21:33:43.289Z,24.67
2019-05-17T21:36:16.595Z,33.25
2019-05-17T21:38:49.814Z,30.30
2019-05-17T21:41:23.597Z,31.82
2019-05-17T21:43:57.230Z,28.50
2019-05-17T21:46:31.018Z,30.50
2019-05-17T21:49:04.316Z,30.72
2019-05-17T21:51:38.015Z,28.32
2019-05-17T21:54:10.717Z,28.55
2019-05-17T21:56:43.936Z,29.82
2019-05-17T21:59:18.198Z,31.52
2019-05-17T22:01:52.070Z,29.18
2019-05-17T22:04:26.944Z,28.60
2019-05-17T22:07:00.479Z,30.35
2019-05-17T22:09:33.757Z,36.33
2019-05-17T22:12:10.157Z,32.83
2019-05-17T22:14:43.394Z,31.50
2019-05-17T22:17:16.668Z,33.02
2019-05-17T22:19:49.834Z,34.55
2019-05-17T22:22:23.194Z,32.70
2019-05-17T22:24:56.514Z,39.78
2019-05-17T22:27:30.290Z,37.25
2019-05-17T22:30:03.852Z,35.05
2019-05-17T22:32:36.293Z,36.00
2019-05-17T22:35:09.082Z,33.10
2019-05-17T22:37:42.418Z,27.82
2019-05-17T22:40:15.719Z,28.42
2019-05-17T22:42:48.977Z,27.75
2019-05-17T22:45:22.210Z,29.85
2019-05-17T22:47:55.858Z,29.30
2019-05-17T22:50:29.545Z,29.23
2019-05-17T22:53:03.101Z,32.60
2019-05-17T22:55:36.342Z,29.77
2019-05-17T22:58:10.142Z,34.15
2019-05-17T23:00:43.812Z,34.05
2019-05-17T23:03:16.563Z,35.50
2019-05-17T23:05:50.741Z,33.55
2019-05-17T23:08:23.825Z,33.50
2019-05-17T23:10:56.971Z,30.20
2019-05-17T23:13:31.004Z,35.30
2019-05-17T23:16:09.209Z,32.55
2019-05-17T23:18:46.114Z,35.52
2019-05-17T23:21:19.516Z,37.25
2019-05-17T23:23:53.300Z,37.08
2019-05-17T23:26:26.595Z,39.00
2019-05-17T23:29:00.287Z,36.38
2019-05-17T23:31:33.348Z,37.78
2019-05-17T23:34:07.293Z,36.68
2019-05-17T23:36:40.440Z,39.15
2019-05-17T23:39:14.676Z,37.05
2019-05-17T23:41:47.097Z,38.08
2019-05-17T23:44:21.065Z,42.20
2019-05-17T23:47:06.155Z,42.93
2019-05-17T23:49:28.926Z,38.70
2019-05-17T23:52:02.609Z,43.33
2019-05-17T23:54:35.778Z,40.50
2019-05-17T23:57:08.645Z,45.55
2019-05-17T23:59:42.207Z,42.95
